Portada
METAR-TAF:

METAR-TAF

Aeroports :

Iekaterinburg, Rússia

latitud: 56-50N, longitud: 060-38E, altitud: 237 m

Observació

L'informe es va fer fa 27 minuts, a les 18:30 UTC
Vent 2 kt del Est/Sud-Est
Temperatura -4°C
Humitat 93%
Pressió 1021 hPa
Visibilitat 10 km o més
Núvols disperses a una alçada de 2600 ft

METAR: USSS 151830Z 11001MPS 9999 SCT026 M04/M05 Q1021 R26R/250050 NOSIG RMK QFE745/0994

Hora: 23:57 (18:57 UTC)

Pronòstic

L'informe es va fer fa 2 hores i 4 minuts, a les 16:53 UTC
Pronòstic vàlid del 15 a les 18 UTC al 16 a les 18 UTC
Vent 6 kt del Est/Sud-Est
Visibilitat: 3100 m
Cel ennuvolat a una alçada de 1100 ft
boirina
Evolucionant progressivament
l' 16 a les 04 UTC al 16 a les 06 UTC
Vent 6 kt del Sud/Sud-Oest amb ràfegues de 21 kt
Visibilitat 10 km o més

TAF: USSS 151653Z 1518/1618 12003MPS 3100 BR BKN011 BECMG 1604/1606 21003G11MPS 9999 NSW

Observacions i pronòstics meteorològics de més de 4000 aeroports (METAR i TAF).

Les estacions disponibles són els punts grocs i vermells al mapa.

Posi el ratolí al punt desitjat per veure el nom de l'estació.

Feu clic per veure les observacions i els pronòstics meteorològics.

Per canviar el mapa: feu clic els botons verds amb una creu de color negre per apropar; al botó verd amb un guió per allunyar la imatge; o en les fletxes verdes per a mapes adjacents.


METAR-TAF: